Time;durP1;ratioP1;P1;durP2;ratioP2;P2;SDS_P1;SDS_P2;PMS_P1;PMS_P2;Temp;Humidity;BMP_temperature;BMP_pressure;BME280_temperature;BME280_humidity;BME280_pressure;Samples;Min_cycle;Max_cycle;Signal;HPM_P1;HPM_P2
2024/04/04 00:00:25;;;;;;;4.82;1.55;;;;;;;8.83;95.31;99071.69;5067151;28;20067;-61
2024/04/04 00:02:51;;;;;;;1.92;1.25;;;;;;;8.84;95.44;99074.06;5070790;28;20066;-61
2024/04/04 00:05:18;;;;;;;2.25;1.20;;;;;;;8.82;95.34;99076.41;5069809;28;20048;-61
2024/04/04 00:07:44;;;;;;;3.22;1.05;;;;;;;8.83;95.46;99066.19;5066993;28;20051;-61
2024/04/04 00:10:10;;;;;;;2.25;0.98;;;;;;;8.81;95.52;99058.28;5066889;28;20044;-61
2024/04/04 00:12:36;;;;;;;2.03;1.23;;;;;;;8.80;95.62;99058.66;5064566;28;20049;-62
2024/04/04 00:15:03;;;;;;;3.47;1.17;;;;;;;8.78;95.49;99053.50;5067696;28;20040;-61
2024/04/04 00:17:29;;;;;;;4.60;1.52;;;;;;;8.76;95.79;99050.34;5069217;28;20063;-62
2024/04/04 00:19:55;;;;;;;4.03;1.50;;;;;;;8.76;95.58;99055.06;5070397;28;20056;-61
2024/04/04 00:22:21;;;;;;;2.15;1.33;;;;;;;8.74;95.77;99047.13;5070312;28;20402;-62
2024/04/04 00:24:48;;;;;;;2.72;1.95;;;;;;;8.74;95.73;99041.63;5069063;28;20044;-62
2024/04/04 00:27:14;;;;;;;3.72;2.33;;;;;;;8.73;95.86;99040.03;5070047;28;20052;-61
2024/04/04 00:29:40;;;;;;;4.18;2.20;;;;;;;8.74;95.96;99040.81;5063244;28;20493;-61
2024/04/04 00:32:06;;;;;;;5.63;2.42;;;;;;;8.75;96.26;99034.94;5069713;28;20044;-61
2024/04/04 00:34:33;;;;;;;5.50;3.30;;;;;;;8.74;96.33;99036.09;5069104;28;20048;-61
2024/04/04 00:37:00;;;;;;;9.38;4.65;;;;;;;8.74;96.30;99036.09;5069744;28;20056;-61
2024/04/04 00:39:27;;;;;;;7.65;3.92;;;;;;;8.71;96.46;99028.56;5069476;28;20043;-63
2024/04/04 00:41:53;;;;;;;6.88;3.75;;;;;;;8.74;96.77;99038.06;5069725;28;20048;-62
2024/04/04 00:44:20;;;;;;;9.63;5.03;;;;;;;8.73;96.77;99037.28;5068195;28;20513;-62
2024/04/04 00:46:46;;;;;;;7.30;3.83;;;;;;;8.72;96.97;99032.13;5069028;28;20056;-61
2024/04/04 00:49:13;;;;;;;5.35;4.07;;;;;;;8.71;96.94;99019.53;5068870;28;20055;-61
2024/04/04 00:51:39;;;;;;;9.32;4.25;;;;;;;8.71;96.96;99020.28;5065754;28;20107;-61
2024/04/04 00:54:05;;;;;;;5.40;3.28;;;;;;;8.72;97.21;99015.56;5068769;28;20051;-61
2024/04/04 00:56:32;;;;;;;8.15;3.38;;;;;;;8.74;97.26;99019.53;5069093;28;20055;-61
2024/04/04 00:58:59;;;;;;;5.72;3.30;;;;;;;8.74;97.29;99016.78;5063707;28;20062;-61
2024/04/04 01:01:25;;;;;;;6.40;3.67;;;;;;;8.73;97.47;99020.72;5068312;28;20052;-63
2024/04/04 01:03:51;;;;;;;10.02;3.58;;;;;;;8.75;97.48;99009.31;5068973;28;20051;-61
2024/04/04 01:06:31;;;;;;;8.57;4.32;;;;;;;8.74;97.67;99013.22;5068413;28;20046;-61
2024/04/04 01:09:00;;;;;;;7.20;3.25;;;;;;;8.73;97.71;99012.47;5062702;28;20055;-61
2024/04/04 01:11:27;;;;;;;9.07;3.35;;;;;;;8.74;97.91;99008.50;5069261;28;20063;-61
2024/04/04 01:13:54;;;;;;;11.35;4.55;;;;;;;8.73;97.89;99006.94;5068419;28;20067;-62
2024/04/04 01:16:20;;;;;;;7.63;3.33;;;;;;;8.73;97.97;99009.69;5068255;28;20056;-61
2024/04/04 01:18:47;;;;;;;6.38;3.33;;;;;;;8.73;98.16;99000.63;5064038;28;20048;-61
2024/04/04 01:21:13;;;;;;;7.53;3.80;;;;;;;8.74;98.42;99000.22;5064977;28;20421;-61
2024/04/04 01:23:42;;;;;;;8.05;3.63;;;;;;;8.74;98.38;98996.69;5068917;28;20501;-61
2024/04/04 01:26:09;;;;;;;7.55;4.18;;;;;;;8.74;98.58;98991.97;5067996;28;20043;-62
2024/04/04 01:28:35;;;;;;;8.45;3.88;;;;;;;8.72;98.51;98986.03;5068532;28;20044;-61
2024/04/04 01:31:02;;;;;;;9.85;3.65;;;;;;;8.71;98.58;98987.19;5047732;28;20044;-61
2024/04/04 01:33:28;;;;;;;8.57;3.58;;;;;;;8.71;98.80;98986.41;5058985;28;20055;-63
2024/04/04 01:35:55;;;;;;;13.50;4.55;;;;;;;8.68;98.69;98982.44;5068322;28;20055;-61
2024/04/04 01:38:21;;;;;;;5.70;3.33;;;;;;;8.67;98.80;98974.53;5064821;28;20493;-62
2024/04/04 01:40:48;;;;;;;11.65;4.15;;;;;;;8.63;98.75;98977.22;5051548;28;20082;-61
2024/04/04 01:43:14;;;;;;;7.38;3.50;;;;;;;8.66;99.05;98979.25;5068046;28;20044;-61
2024/04/04 01:45:41;;;;;;;6.68;3.50;;;;;;;8.68;99.25;98976.13;5066835;28;20044;-61
2024/04/04 01:48:07;;;;;;;8.18;3.25;;;;;;;8.68;99.14;98982.44;5047969;28;20048;-61
2024/04/04 01:50:33;;;;;;;9.50;3.67;;;;;;;8.64;99.09;98975.28;5064057;28;20044;-61
2024/04/04 01:52:59;;;;;;;10.20;3.78;;;;;;;8.61;99.21;98982.34;5049289;28;20056;-61
2024/04/04 01:55:29;;;;;;;4.85;3.75;;;;;;;8.59;99.21;98979.16;5067615;28;20056;-62
2024/04/04 01:57:57;;;;;;;7.78;3.20;;;;;;;8.59;99.32;98984.69;5068485;28;20063;-61
2024/04/04 02:00:23;;;;;;;6.63;3.30;;;;;;;8.59;99.42;98984.69;5067765;28;20052;-62
2024/04/04 02:02:50;;;;;;;5.90;2.85;;;;;;;8.57;99.52;98981.50;5066558;28;20056;-61
2024/04/04 02:05:16;;;;;;;5.78;3.22;;;;;;;8.54;99.51;98973.97;5065892;28;20055;-61
2024/04/04 02:07:42;;;;;;;6.40;2.83;;;;;;;8.52;99.49;98973.56;5050963;28;20056;-61
2024/04/04 02:10:08;;;;;;;6.03;3.10;;;;;;;8.51;99.61;98974.72;5067189;28;20048;-61
2024/04/04 02:12:35;;;;;;;4.82;3.03;;;;;;;8.52;99.63;98979.09;5067811;28;20048;-61
2024/04/04 02:15:01;;;;;;;7.35;3.55;;;;;;;8.51;99.61;98971.97;5067765;28;20126;-63
2024/04/04 02:17:27;;;;;;;10.98;5.03;;;;;;;8.51;99.71;98972.75;5067021;28;20174;-63
2024/04/04 02:19:54;;;;;;;11.90;4.95;;;;;;;8.50;99.79;98982.19;5063098;28;20041;-61
2024/04/04 02:22:21;;;;;;;6.30;4.43;;;;;;;8.51;99.81;98969.22;5051745;28;20083;-62
2024/04/04 02:24:47;;;;;;;8.77;4.13;;;;;;;8.49;99.74;98963.28;5067477;28;20568;-61
2024/04/04 02:27:13;;;;;;;6.25;4.03;;;;;;;8.48;99.99;98956.16;5061375;28;20057;-61
2024/04/04 02:29:45;;;;;;;5.82;3.85;;;;;;;8.47;100.00;98965.63;5047957;28;20047;-61
2024/04/04 02:32:12;;;;;;;3.67;3.08;;;;;;;8.46;100.00;98964.03;5062923;28;20052;-61
2024/04/04 02:34:38;;;;;;;6.55;3.63;;;;;;;8.45;100.00;98967.94;5067506;28;20153;-62
2024/04/04 02:37:05;;;;;;;7.18;3.67;;;;;;;8.44;100.00;98963.59;5066557;28;20064;-61
2024/04/04 02:39:32;;;;;;;10.13;3.85;;;;;;;8.44;100.00;98966.38;5067140;28;20040;-61
2024/04/04 02:41:58;;;;;;;10.40;3.83;;;;;;;8.45;100.00;98967.94;5068021;28;20051;-61
2024/04/04 02:44:25;;;;;;;6.85;2.97;;;;;;;8.43;100.00;98970.28;5067607;28;20047;-61
2024/04/04 02:46:51;;;;;;;8.73;3.45;;;;;;;8.44;100.00;98966.38;5066982;28;20039;-61
2024/04/04 02:49:18;;;;;;;7.85;2.75;;;;;;;8.42;100.00;98960.41;5063473;28;20044;-61
2024/04/04 02:51:45;;;;;;;8.40;2.45;;;;;;;8.41;100.00;98956.09;5067433;28;20067;-61
2024/04/04 02:54:11;;;;;;;9.25;3.42;;;;;;;8.40;100.00;98963.56;5068081;28;20063;-61
2024/04/04 02:56:38;;;;;;;5.50;2.28;;;;;;;8.37;100.00;98955.22;5066416;28;20055;-61
2024/04/04 02:59:04;;;;;;;3.97;2.42;;;;;;;8.36;100.00;98959.97;5054579;28;20052;-61
2024/04/04 03:01:30;;;;;;;7.00;2.33;;;;;;;8.35;100.00;98963.06;5162712;22;20055;-61
2024/04/04 03:03:56;;;;;;;8.32;2.03;;;;;;;8.36;100.00;98961.91;5064589;28;20036;-61
2024/04/04 03:06:24;;;;;;;5.65;2.00;;;;;;;8.35;100.00;98952.06;5066982;28;20078;-61
2024/04/04 03:08:50;;;;;;;4.05;1.98;;;;;;;8.31;100.00;98956.75;5054338;28;20614;-61
2024/04/04 03:11:16;;;;;;;3.25;1.80;;;;;;;8.31;100.00;98962.25;5063516;28;20048;-61
2024/04/04 03:13:42;;;;;;;6.90;2.17;;;;;;;8.32;100.00;98961.06;5069449;28;20037;-61
2024/04/04 03:16:08;;;;;;;4.32;2.45;;;;;;;8.32;100.00;98959.09;5064556;28;20052;-61
2024/04/04 03:18:35;;;;;;;7.45;2.50;;;;;;;8.34;100.00;98951.25;5069856;28;20040;-61
2024/04/04 03:21:01;;;;;;;2.35;1.85;;;;;;;8.34;100.00;98956.00;5068055;28;20052;-61
2024/04/04 03:23:27;;;;;;;6.25;2.97;;;;;;;8.31;100.00;98954.75;5068493;28;20062;-62
2024/04/04 03:25:54;;;;;;;4.95;2.30;;;;;;;8.31;100.00;98945.72;5062387;28;20391;-61
2024/04/04 03:28:20;;;;;;;8.23;2.50;;;;;;;8.31;100.00;98956.75;5069944;28;20048;-61
2024/04/04 03:30:46;;;;;;;7.22;3.70;;;;;;;8.32;100.00;98950.03;5060900;28;20394;-61
2024/04/04 03:33:12;;;;;;;5.85;2.70;;;;;;;8.33;100.00;98944.16;5065700;28;20047;-61
2024/04/04 03:35:39;;;;;;;9.75;3.08;;;;;;;8.35;100.00;98941.81;5057641;28;20048;-61
2024/04/04 03:38:06;;;;;;;3.97;2.38;;;;;;;8.36;100.00;98942.63;5051573;28;20052;-61
2024/04/04 03:40:32;;;;;;;9.05;3.45;;;;;;;8.34;100.00;98947.72;5057701;28;20048;-61
2024/04/04 03:43:01;;;;;;;8.00;2.90;;;;;;;8.34;100.00;98948.50;5069598;28;20052;-62
2024/04/04 03:45:28;;;;;;;5.78;3.42;;;;;;;8.36;100.00;98942.63;5060290;28;20044;-62
2024/04/04 03:47:59;;;;;;;6.78;4.05;;;;;;;8.36;100.00;98948.13;5070885;28;20052;-61
2024/04/04 03:50:26;;;;;;;4.10;3.17;;;;;;;8.34;100.00;98954.00;5064206;28;20064;-61
2024/04/04 03:52:53;;;;;;;5.70;3.33;;;;;;;8.34;100.00;98951.25;5070356;28;20052;-61
2024/04/04 03:55:19;;;;;;;8.10;3.85;;;;;;;8.37;100.00;98955.22;5048030;28;20063;-61
2024/04/04 03:57:45;;;;;;;4.93;2.83;;;;;;;8.38;100.00;98960.38;5064040;28;20055;-61
2024/04/04 04:00:12;;;;;;;5.45;3.40;;;;;;;8.38;100.00;98959.59;5065210;28;20044;-62
2024/04/04 04:02:38;;;;;;;9.35;3.83;;;;;;;8.37;100.00;98963.50;5058632;28;20417;-61
2024/04/04 04:05:04;;;;;;;11.10;3.88;;;;;;;8.38;100.00;98962.34;5065041;28;20056;-62
2024/04/04 04:07:31;;;;;;;5.10;3.17;;;;;;;8.34;100.00;98972.53;5058419;28;20052;-61
2024/04/04 04:09:57;;;;;;;5.18;2.60;;;;;;;8.32;100.00;98972.09;5065435;28;20428;-61
2024/04/04 04:12:23;;;;;;;7.45;2.80;;;;;;;8.33;100.00;98970.94;5060383;28;20513;-61
2024/04/04 04:14:50;;;;;;;5.47;2.85;;;;;;;8.32;100.00;98970.13;5066188;28;20044;-61
2024/04/04 04:17:16;;;;;;;8.90;3.30;;;;;;;8.33;100.00;98970.94;5066171;28;20047;-62
2024/04/04 04:19:42;;;;;;;7.45;2.75;;;;;;;8.34;100.00;98967.03;5069053;28;20059;-61
2024/04/04 04:22:08;;;;;;;8.68;3.17;;;;;;;8.33;100.00;98971.75;5069202;28;20036;-61
2024/04/04 04:24:35;;;;;;;9.50;2.70;;;;;;;8.33;100.00;98968.19;5065391;28;20051;-61
2024/04/04 04:27:02;;;;;;;4.22;2.80;;;;;;;8.33;100.00;98973.69;5059641;28;20048;-61
2024/04/04 04:29:28;;;;;;;4.50;2.28;;;;;;;8.33;100.00;98976.44;5067478;28;20047;-62
2024/04/04 04:31:56;;;;;;;4.53;2.45;;;;;;;8.33;100.00;98980.00;5046829;28;20086;-61
2024/04/04 04:34:22;;;;;;;6.18;2.10;;;;;;;8.34;100.00;98983.56;5066326;28;20040;-62
2024/04/04 04:37:03;;;;;;;7.80;2.80;;;;;;;8.36;100.00;98981.22;5058377;28;20075;-61
2024/04/04 04:39:31;;;;;;;6.32;2.35;;;;;;;8.36;100.00;98975.72;5067996;28;20044;-62
2024/04/04 04:41:57;;;;;;;8.43;3.38;;;;;;;8.35;100.00;98966.63;5048028;28;20044;-61
2024/04/04 04:44:24;;;;;;;8.90;2.63;;;;;;;8.38;100.00;98982.44;5058958;28;20059;-62
2024/04/04 04:46:51;;;;;;;7.47;2.88;;;;;;;8.40;100.00;98976.53;5066096;28;20051;-61
2024/04/04 04:49:18;;;;;;;5.63;2.83;;;;;;;8.42;100.00;98985.22;5069822;28;20420;-61
2024/04/04 04:51:44;;;;;;;4.88;2.53;;;;;;;8.42;100.00;98977.75;5067810;28;20413;-61
2024/04/04 04:54:11;;;;;;;8.48;3.45;;;;;;;8.43;100.00;98981.31;5069455;28;20048;-61
2024/04/04 04:56:38;;;;;;;6.30;2.70;;;;;;;8.41;100.00;98983.66;5064331;28;20056;-61
2024/04/04 04:59:04;;;;;;;6.82;2.65;;;;;;;8.38;100.00;98985.19;5057284;28;20048;-62
2024/04/04 05:01:31;;;;;;;12.20;2.72;;;;;;;8.38;100.00;98993.47;5057687;28;20060;-63
2024/04/04 05:03:57;;;;;;;9.85;2.88;;;;;;;8.40;100.00;98984.81;5069455;28;20048;-61
2024/04/04 05:06:23;;;;;;;5.90;2.75;;;;;;;8.39;100.00;98991.50;5063717;28;20083;-62
2024/04/04 05:08:50;;;;;;;7.57;4.65;;;;;;;8.39;100.00;98991.50;5065822;28;20036;-61
2024/04/04 05:11:16;;;;;;;6.47;3.22;;;;;;;8.39;100.00;98991.50;5067598;28;20071;-61
2024/04/04 05:13:43;;;;;;;5.03;2.97;;;;;;;8.39;100.00;98986.78;5068351;28;20044;-61
2024/04/04 05:16:09;;;;;;;15.93;5.07;;;;;;;8.39;100.00;98978.50;5059230;28;20056;-61
2024/04/04 05:18:35;;;;;;;5.88;2.85;;;;;;;8.41;100.00;98983.66;5068272;28;20418;-61
2024/04/04 05:21:06;;;;;;;7.03;2.63;;;;;;;8.43;100.00;98986.81;5062978;28;20049;-61
2024/04/04 05:23:33;;;;;;;6.10;3.50;;;;;;;8.44;100.00;98985.66;5059358;28;20497;-61
2024/04/04 05:26:00;;;;;;;6.78;3.15;;;;;;;8.44;100.00;98986.47;5061184;28;20052;-61
2024/04/04 05:28:26;;;;;;;8.18;3.30;;;;;;;8.45;100.00;98995.50;5066638;28;20505;-61
2024/04/04 05:30:53;;;;;;;4.65;2.78;;;;;;;8.45;100.00;99001.03;5058747;28;20406;-61
2024/04/04 05:33:20;;;;;;;10.95;3.30;;;;;;;8.44;100.00;99004.97;5057241;28;20052;-61
2024/04/04 05:35:46;;;;;;;7.38;3.05;;;;;;;8.44;100.00;98999.47;5067809;28;20083;-61
2024/04/04 05:38:13;;;;;;;6.20;3.42;;;;;;;8.45;100.00;99001.03;5066965;28;20052;-61
2024/04/04 05:40:47;;;;;;;8.70;3.40;;;;;;;8.44;100.00;99000.25;5066864;28;20039;-61
2024/04/04 05:43:14;;;;;;;7.68;3.28;;;;;;;8.45;100.00;99001.03;5066449;28;20051;-61
2024/04/04 05:45:41;;;;;;;10.25;3.78;;;;;;;8.44;100.00;99007.72;5065754;28;21642;-61
2024/04/04 05:48:07;;;;;;;11.23;3.63;;;;;;;8.42;100.00;99004.53;5052209;28;20055;-61
2024/04/04 05:50:34;;;;;;;11.30;5.45;;;;;;;8.42;100.00;99001.78;5066642;28;20032;-61
2024/04/04 05:53:01;;;;;;;13.60;4.15;;;;;;;8.44;100.00;99004.97;5068708;28;20044;-61
2024/04/04 05:55:27;;;;;;;6.32;3.70;;;;;;;8.43;100.00;99008.88;5066475;28;20052;-62
2024/04/04 05:57:53;;;;;;;14.00;4.57;;;;;;;8.44;100.00;99007.72;5067969;28;20056;-61
2024/04/04 06:00:20;;;;;;;9.35;4.55;;;;;;;8.43;100.00;99003.38;5060539;28;20047;-61
2024/04/04 06:02:47;;;;;;;10.05;4.70;;;;;;;8.44;100.00;99004.97;5066894;28;20064;-61
2024/04/04 06:05:13;;;;;;;13.43;4.85;;;;;;;8.43;100.00;99022.69;5067546;28;20047;-61
2024/04/04 06:07:41;;;;;;;12.55;4.45;;;;;;;8.44;100.00;99024.28;5067336;28;20058;-61
2024/04/04 06:10:07;;;;;;;14.35;6.13;;;;;;;8.47;100.00;99037.31;5067118;28;20056;-61
2024/04/04 06:12:34;;;;;;;13.15;3.72;;;;;;;8.49;100.00;99046.81;5063098;28;20536;-61
2024/04/04 06:15:00;;;;;;;10.70;3.90;;;;;;;8.55;100.00;99044.53;5061251;28;20051;-61
2024/04/04 06:17:26;;;;;;;10.07;4.47;;;;;;;8.58;100.00;99041.81;5052154;28;20043;-61
2024/04/04 06:19:52;;;;;;;6.90;4.78;;;;;;;8.62;100.00;99044.63;5061047;28;20055;-61
2024/04/04 06:22:19;;;;;;;7.38;3.97;;;;;;;8.65;100.00;99049.41;5063925;28;20082;-61
2024/04/04 06:24:45;;;;;;;31.50;6.85;;;;;;;8.69;100.00;99054.94;5029376;28;20052;-62
2024/04/04 06:27:11;;;;;;;13.00;3.72;;;;;;;8.70;100.00;99067.56;5057207;28;20502;-61
2024/04/04 06:29:38;;;;;;;13.90;4.03;;;;;;;8.69;100.00;99072.28;5058135;28;20052;-61
2024/04/04 06:32:05;;;;;;;8.40;4.07;;;;;;;8.68;100.00;99076.25;5060989;28;20052;-61
2024/04/04 06:34:33;;;;;;;7.93;3.45;;;;;;;8.68;100.00;99087.28;5064169;28;20063;-62
2024/04/04 06:37:00;;;;;;;6.90;2.45;;;;;;;8.67;100.00;99077.41;5061170;28;20056;-62
2024/04/04 06:39:26;;;;;;;6.65;2.45;;;;;;;8.68;100.00;99076.25;5050743;28;20047;-61
2024/04/04 06:41:53;;;;;;;9.15;2.80;;;;;;;8.68;100.00;99081.75;5063047;28;20036;-61
2024/04/04 06:44:19;;;;;;;3.58;2.72;;;;;;;8.68;100.00;99075.44;5055010;28;20052;-62
2024/04/04 06:46:46;;;;;;;6.45;2.90;;;;;;;8.69;100.00;99082.53;5056633;28;20052;-61
2024/04/04 06:49:12;;;;;;;6.95;2.78;;;;;;;8.70;100.00;99090.44;5058430;28;20110;-61
2024/04/04 06:51:38;;;;;;;8.27;4.20;;;;;;;8.69;100.00;99094.38;5066026;28;20413;-61
2024/04/04 06:54:04;;;;;;;13.07;3.28;;;;;;;8.71;100.00;99107.81;5068103;28;20048;-63
2024/04/04 06:56:31;;;;;;;3.70;3.00;;;;;;;8.71;100.00;99113.31;5070023;28;20048;-61
2024/04/04 06:58:57;;;;;;;6.15;2.85;;;;;;;8.71;100.00;99116.84;5070131;28;20051;-61
2024/04/04 07:01:25;;;;;;;5.03;2.47;;;;;;;8.72;100.00;99115.69;5071266;28;20048;-62
2024/04/04 07:03:53;;;;;;;8.00;3.30;;;;;;;8.73;100.00;99117.31;5072498;28;20052;-61
2024/04/04 07:06:19;;;;;;;8.38;3.03;;;;;;;8.73;100.00;99120.06;5071506;28;20524;-61
2024/04/04 07:08:46;;;;;;;9.93;3.10;;;;;;;8.74;100.00;99126.34;5064898;28;20052;-62
2024/04/04 07:11:12;;;;;;;8.88;3.42;;;;;;;8.71;100.00;99127.88;5071313;28;20044;-61
2024/04/04 07:13:39;;;;;;;9.80;3.00;;;;;;;8.68;100.00;99125.91;5071217;28;20063;-61
2024/04/04 07:16:07;;;;;;;3.95;2.30;;;;;;;8.62;100.00;99126.56;5063113;28;20048;-61
2024/04/04 07:18:34;;;;;;;5.78;2.50;;;;;;;8.61;100.00;99130.50;5069480;28;20048;-61
2024/04/04 07:21:01;;;;;;;7.93;2.20;;;;;;;8.60;100.00;99129.72;5070502;28;20044;-62
2024/04/04 07:23:27;;;;;;;6.85;2.55;;;;;;;8.61;100.00;99144.28;5071957;28;20044;-63
2024/04/04 07:25:55;;;;;;;7.65;3.35;;;;;;;8.60;100.00;99149.03;5061728;28;20044;-61
2024/04/04 07:28:21;;;;;;;9.57;4.43;;;;;;;8.60;100.00;99139.94;5066124;28;20071;-63
2024/04/04 07:30:48;;;;;;;9.23;3.05;;;;;;;8.60;100.00;99150.97;5059477;28;20059;-63
2024/04/04 07:33:14;;;;;;;6.70;2.63;;;;;;;8.57;100.00;99145.06;5058759;28;20048;-61
2024/04/04 07:35:41;;;;;;;6.30;2.80;;;;;;;8.57;100.00;99152.53;5065869;28;20060;-62
2024/04/04 07:38:08;;;;;;;11.82;2.60;;;;;;;8.56;100.00;99150.91;5064108;28;20417;-63
2024/04/04 07:40:38;;;;;;;8.75;3.08;;;;;;;8.53;100.00;99157.97;5067872;28;20036;-62
2024/04/04 07:43:06;;;;;;;15.63;3.40;;;;;;;8.49;100.00;99154.38;5071970;28;20072;-63
2024/04/04 07:45:41;;;;;;;12.65;4.90;;;;;;;8.52;100.00;99161.13;5059218;28;20052;-63
2024/04/04 07:48:09;;;;;;;5.75;1.92;;;;;;;8.51;100.00;99159.50;5071840;28;20493;-63
2024/04/04 07:50:36;;;;;;;5.80;2.88;;;;;;;8.49;100.00;99156.34;5069132;28;20040;-62
2024/04/04 07:53:03;;;;;;;8.95;2.88;;;;;;;8.46;100.00;99152.34;5071710;28;20055;-63
2024/04/04 07:55:32;;;;;;;7.80;2.33;;;;;;;8.45;100.00;99144.44;5070968;28;20047;-63
2024/04/04 07:57:58;;;;;;;8.40;2.50;;;;;;;8.44;100.00;99148.38;5063799;28;20146;-63
2024/04/04 08:00:25;;;;;;;5.55;2.28;;;;;;;8.45;100.00;99141.69;5069033;28;20492;-63
2024/04/04 08:02:51;;;;;;;7.38;2.55;;;;;;;8.42;100.00;99142.41;5054650;28;20040;-63
2024/04/04 08:05:18;;;;;;;8.05;2.53;;;;;;;8.40;100.00;99142.78;5068169;28;20054;-63
2024/04/04 08:07:44;;;;;;;6.47;2.30;;;;;;;8.41;100.00;99141.63;5070384;28;20048;-63
2024/04/04 08:10:13;;;;;;;6.40;2.95;;;;;;;8.43;100.00;99141.25;5069819;28;20710;-63
2024/04/04 08:12:39;;;;;;;8.63;2.85;;;;;;;8.46;100.00;99146.03;5071025;28;20060;-63
2024/04/04 08:15:11;;;;;;;9.73;3.58;;;;;;;8.49;100.00;99137.03;5070615;28;20421;-63
2024/04/04 08:17:41;;;;;;;8.02;2.55;;;;;;;8.49;100.00;99150.81;5070143;28;20052;-63
2024/04/04 08:20:15;;;;;;;6.53;3.53;;;;;;;8.48;100.00;99155.53;5069668;28;20040;-63
2024/04/04 08:22:46;;;;;;;7.95;3.75;;;;;;;8.51;100.00;99165.81;5069989;28;20056;-64
2024/04/04 08:25:16;;;;;;;12.05;3.55;;;;;;;8.55;100.00;99168.66;5062552;28;20052;-63
2024/04/04 08:27:42;;;;;;;15.40;2.90;;;;;;;8.59;100.00;99169.50;5067496;28;20055;-63
2024/04/04 08:30:10;;;;;;;10.15;2.85;;;;;;;8.64;100.00;99174.69;5058332;28;20052;-63
2024/04/04 08:32:36;;;;;;;7.47;2.72;;;;;;;8.70;100.00;99175.97;5069712;28;20513;-63
2024/04/04 08:35:06;;;;;;;7.88;2.88;;;;;;;8.76;100.00;99165.44;5070552;28;20092;-63
2024/04/04 08:37:33;;;;;;;9.43;2.88;;;;;;;8.80;100.00;99160.75;5069672;28;20052;-63
2024/04/04 08:40:00;;;;;;;7.32;3.63;;;;;;;8.82;100.00;99170.22;5060769;28;20406;-64
2024/04/04 08:42:27;;;;;;;9.05;3.17;;;;;;;8.86;100.00;99187.66;5063279;28;20048;-63
2024/04/04 08:44:56;;;;;;;6.35;2.92;;;;;;;8.90;100.00;99199.53;5069674;28;20040;-64
2024/04/04 08:47:23;;;;;;;9.27;2.28;;;;;;;8.93;100.00;99193.28;5057297;28;20055;-64
2024/04/04 08:49:51;;;;;;;8.95;2.30;;;;;;;8.91;100.00;99200.34;5053220;28;20049;-63
2024/04/04 08:52:21;;;;;;;3.38;1.50;;;;;;;8.86;100.00;99200.66;5047850;28;20040;-63
2024/04/04 08:54:47;;;;;;;8.15;1.77;;;;;;;8.83;100.00;99207.72;5069557;28;20059;-63
2024/04/04 08:57:15;;;;;;;6.07;2.05;;;;;;;8.78;100.00;99207.22;5069294;28;20421;-63
2024/04/04 08:59:41;;;;;;;14.75;2.65;;;;;;;8.71;100.00;99210.66;5069678;28;20060;-63
2024/04/04 09:02:07;;;;;;;6.45;1.75;;;;;;;8.67;100.00;99211.78;5067239;28;20513;-63
2024/04/04 09:04:34;;;;;;;3.03;1.50;;;;;;;8.67;100.00;99206.25;5068603;28;20051;-63
2024/04/04 09:07:00;;;;;;;12.90;1.80;;;;;;;8.64;100.00;99204.22;5069356;28;20040;-63
2024/04/04 09:09:26;;;;;;;6.53;1.70;;;;;;;8.63;100.00;99195.16;5069893;28;20055;-63
2024/04/04 09:11:54;;;;;;;9.77;1.85;;;;;;;8.63;100.00;99200.66;5069679;28;20528;-63
2024/04/04 09:14:21;;;;;;;12.85;1.75;;;;;;;8.67;100.00;99204.31;5068876;28;20056;-63
2024/04/04 09:16:47;;;;;;;6.90;1.55;;;;;;;8.77;100.00;99200.91;5068658;28;20135;-63
2024/04/04 09:19:14;;;;;;;5.63;1.50;;;;;;;9.05;100.00;99204.09;5069450;28;20051;-63
2024/04/04 09:21:43;;;;;;;8.25;1.65;;;;;;;9.48;100.00;99212.97;5069112;28;20790;-63
2024/04/04 09:24:12;;;;;;;9.40;1.55;;;;;;;9.81;100.00;99210.22;5068955;28;20043;-63
2024/04/04 09:26:39;;;;;;;6.65;2.15;;;;;;;10.31;100.00;99206.06;5068750;28;20048;-63
2024/04/04 09:29:06;;;;;;;8.45;1.58;;;;;;;10.90;100.00;99214.09;5068670;28;20059;-63
2024/04/04 09:31:37;;;;;;;11.20;2.10;;;;;;;10.93;100.00;99213.28;5066877;28;20067;-63
2024/04/04 09:34:04;;;;;;;5.38;1.50;;;;;;;10.87;100.00;99216.81;5068673;28;20421;-63
2024/04/04 09:36:33;;;;;;;4.10;1.27;;;;;;;10.89;100.00;99220.78;5067207;28;20448;-63
2024/04/04 09:39:02;;;;;;;6.63;1.77;;;;;;;10.98;100.00;99217.69;5060632;28;20089;-63
2024/04/04 09:41:30;;;;;;;4.05;1.80;;;;;;;10.93;100.00;99221.59;5069235;28;20052;-63
2024/04/04 09:43:57;;;;;;;8.65;1.70;;;;;;;10.92;100.00;99230.31;5068958;28;20093;-63
2024/04/04 09:46:26;;;;;;;9.55;1.92;;;;;;;11.05;100.00;99231.56;5068714;28;20528;-63
2024/04/04 09:48:53;;;;;;;7.03;1.38;;;;;;;11.08;100.00;99228.03;5068814;28;20059;-63
2024/04/04 09:51:21;;;;;;;5.55;1.63;;;;;;;10.98;100.00;99234.31;5068616;28;20052;-63
2024/04/04 09:53:49;;;;;;;6.88;2.35;;;;;;;10.85;100.00;99235.78;5068545;28;20040;-63
2024/04/04 09:56:19;;;;;;;4.78;1.35;;;;;;;10.82;100.00;99236.56;5069084;28;20043;-63
2024/04/04 09:58:46;;;;;;;11.00;1.40;;;;;;;10.77;100.00;99231.38;5068282;28;20040;-63
2024/04/04 10:01:23;;;;;;;7.15;2.00;;;;;;;10.69;100.00;99229.72;5066175;28;20060;-63
2024/04/04 10:03:50;;;;;;;4.20;1.85;;;;;;;10.61;100.00;99220.56;5067136;28;20134;-63
2024/04/04 10:06:33;;;;;;;5.72;1.50;;;;;;;10.52;100.00;99233.13;5061814;28;20059;-64
2024/04/04 10:08:59;;;;;;;7.43;1.40;;;;;;;10.47;100.00;99225.16;5057582;28;20043;-63
2024/04/04 10:11:27;;;;;;;9.65;1.50;;;;;;;10.43;100.00;99221.59;5055657;28;20057;-63
2024/04/04 10:13:53;;;;;;;5.47;1.45;;;;;;;10.44;100.00;99228.69;5067764;28;20055;-64
2024/04/04 10:16:33;;;;;;;9.70;2.60;;;;;;;10.47;100.00;99211.34;5068674;28;20067;-64
2024/04/04 10:19:20;;;;;;;11.88;1.60;;;;;;;10.54;100.00;99219.72;5068198;28;20066;-64
2024/04/04 10:21:47;;;;;;;5.38;1.15;;;;;;;10.63;100.00;99229.28;5066183;28;20059;-63
2024/04/04 10:24:22;;;;;;;4.20;1.60;;;;;;;11.18;100.00;99226.50;5055937;28;20885;-65
2024/04/04 10:26:59;;;;;;;5.78;1.63;;;;;;;11.51;100.00;99223.56;5067747;28;20036;-64
2024/04/04 10:29:34;;;;;;;3.50;1.00;;;;;;;11.43;100.00;99228.28;5068991;28;20055;-65
2024/04/04 10:32:01;;;;;;;4.45;1.20;;;;;;;11.26;100.00;99222.63;5066518;28;20141;-64
2024/04/04 10:34:28;;;;;;;6.43;1.60;;;;;;;11.21;100.00;99232.09;5067936;28;20044;-64
2024/04/04 10:36:54;;;;;;;5.82;1.25;;;;;;;11.26;100.00;99228.16;5049202;28;20056;-63
2024/04/04 10:39:23;;;;;;;4.32;1.60;;;;;;;11.23;100.00;99229.72;5065809;28;20137;-63
2024/04/04 10:41:51;;;;;;;16.13;3.20;;;;;;;11.22;100.00;99213.50;5063314;28;20047;-62
2024/04/04 10:44:22;;;;;;;8.90;1.40;;;;;;;11.13;100.00;99215.81;5066295;28;20033;-62
2024/04/04 10:46:54;;;;;;;6.75;1.15;;;;;;;10.97;100.00;99214.13;5068280;28;20055;-62
2024/04/04 10:49:23;;;;;;;14.02;1.88;;;;;;;10.86;100.00;99210.47;5067164;28;20047;-62
2024/04/04 10:51:53;;;;;;;4.93;1.23;;;;;;;10.77;100.00;99223.88;5066767;28;20052;-63
2024/04/04 10:54:21;;;;;;;7.40;1.10;;;;;;;10.68;100.00;99220.63;5068581;28;20056;-62
2024/04/04 10:56:47;;;;;;;4.18;1.77;;;;;;;10.51;100.00;99217.72;5065566;28;20052;-62
2024/04/04 10:59:17;;;;;;;6.40;1.67;;;;;;;10.50;100.00;99229.94;5068031;28;20075;-63
2024/04/04 11:01:45;;;;;;;7.22;1.70;;;;;;;10.48;100.00;99232.31;5062494;28;20063;-62
2024/04/04 11:04:13;;;;;;;6.95;1.50;;;;;;;10.41;100.00;99238.53;5064962;28;20049;-62
2024/04/04 11:06:40;;;;;;;11.65;1.45;;;;;;;10.34;100.00;99238.50;5064020;28;20045;-62
2024/04/04 11:09:15;;;;;;;8.18;1.45;;;;;;;10.32;100.00;99240.84;5055374;28;20052;-63
2024/04/04 11:11:53;;;;;;;9.10;1.60;;;;;;;10.36;100.00;99239.69;5064275;28;20048;-62
2024/04/04 11:14:24;;;;;;;5.60;1.80;;;;;;;10.42;100.00;99247.66;5063261;28;20048;-62
2024/04/04 11:16:54;;;;;;;10.27;1.60;;;;;;;10.48;100.00;99235.88;5063609;28;20063;-62
2024/04/04 11:19:24;;;;;;;5.60;1.80;;;;;;;10.65;100.00;99242.72;5063755;28;20484;-62
2024/04/04 11:21:53;;;;;;;5.57;1.08;;;;;;;10.80;100.00;99236.91;5051458;28;20048;-63
2024/04/04 11:24:22;;;;;;;4.47;1.30;;;;;;;10.86;99.75;99242.91;5063412;28;20086;-63
2024/04/04 11:26:48;;;;;;;1.85;1.10;;;;;;;10.96;99.85;99236.69;5052291;28;20040;-63
2024/04/04 11:29:15;;;;;;;6.05;1.38;;;;;;;11.02;99.80;99235.91;5064995;28;20493;-62
2024/04/04 11:31:41;;;;;;;3.05;0.98;;;;;;;11.11;99.43;99238.34;5063364;28;20049;-63